To NAV CANADA Home Page Login to a new session Search on AWWS site Feedback and Comments Disclaimer Vers la page française équivalente Tips FAQ What's new on the site To the Forecasts and Observations / NOTAM section To "File a Flight Plan" website Publications and other links Update of the User's profile FIC Telephone Numbers My Weather Data Folder Route Weather Data Regional Weather Data Local Weather Data To the Forecasts and Observations / NOTAM section
Request Generated 03/28/2017 at 02:23:58 UTC . Weather information available at that time is displayed.

METAR/TAF

OTTAWA/GATINEAU/QC    

LWIS CYND 280200Z AUTO 07002KT 01/01 A2992=
METAR CYND 280100Z 05002KT 1/2SM FG VV003 02/01 A2992 RMK FG8 LAST
STFD OBS/NEXT 281100 UTC SLP137=
METAR CYND 280000Z 09005KT 1/2SM FG VV003 01/01 A2990 RMK FG8 SLP131=

*** REMARK        : Forecast period has ended; this was the last TAF issued
*** REMARQUE : La période de prévision est échue; ceci était le dernier TAF qui a été émis
TAF AMD CYND 272153Z 2722/2801 09005KT 2SM BR OVC004 TEMPO 2722/2801
3/4SM -RA -DZ BR OVC002
RMK NXT FCST WILL BE ISSUED AT 281245Z=
Your time UTC time
Weather data provided by Environment Canada and NAV CANADA